createdAt,value
2023-03-18T00:01:07.578Z,96013.09
2023-03-18T00:04:04.587Z,96010.38
2023-03-18T00:07:01.767Z,96009.38
2023-03-18T00:09:58.942Z,96017.81
2023-03-18T00:12:55.850Z,96019.66
2023-03-18T00:15:52.777Z,96008.13
2023-03-18T00:18:50.013Z,96007.03
2023-03-18T00:21:47.044Z,96022.03
2023-03-18T00:24:43.930Z,96016.28
2023-03-18T00:27:41.120Z,96029.69
2023-03-18T00:30:40.126Z,96026.31
2023-03-18T00:33:45.643Z,96033.53
2023-03-18T00:36:42.840Z,96036.19
2023-03-18T00:39:44.273Z,96040.19
2023-03-18T00:42:47.453Z,96041.66
2023-03-18T00:45:46.078Z,96044.34
2023-03-18T00:48:44.112Z,96049.84
2023-03-18T00:51:42.141Z,96044.19
2023-03-18T00:54:39.077Z,96043.97
2023-03-18T00:57:36.347Z,96039.50
2023-03-18T01:00:34.163Z,96040.81
2023-03-18T01:03:31.895Z,96051.72
2023-03-18T01:06:31.541Z,96046.72
2023-03-18T01:09:28.502Z,96052.16
2023-03-18T01:12:25.655Z,96058.13
2023-03-18T01:15:23.256Z,96067.16
2023-03-18T01:18:20.820Z,96062.97
2023-03-18T01:21:18.114Z,96058.47
2023-03-18T01:24:14.974Z,96061.03
2023-03-18T01:27:12.186Z,96068.69
2023-03-18T01:30:10.211Z,96067.78
2023-03-18T01:33:08.001Z,96074.59
2023-03-18T01:36:05.597Z,96074.72
2023-03-18T01:39:02.985Z,96078.59
2023-03-18T01:42:00.630Z,96067.00
2023-03-18T01:45:28.564Z,96069.94
2023-03-18T01:48:29.906Z,96072.53
2023-03-18T01:51:27.597Z,96072.50
2023-03-18T01:54:26.992Z,96073.75
2023-03-18T01:57:24.161Z,96072.94
2023-03-18T02:00:21.853Z,96078.31
2023-03-18T02:03:21.179Z,96089.06
2023-03-18T02:06:19.127Z,96081.19
2023-03-18T02:09:16.473Z,96089.88
2023-03-18T02:12:18.990Z,96092.56
2023-03-18T02:15:21.335Z,96096.81
2023-03-18T02:18:24.659Z,96094.44
2023-03-18T02:21:54.296Z,96097.88
2023-03-18T02:25:37.446Z,96109.53
2023-03-18T02:28:36.473Z,96111.84
2023-03-18T02:31:36.890Z,96106.03
2023-03-18T02:34:35.604Z,96102.88
2023-03-18T02:37:32.588Z,96103.53
2023-03-18T02:40:34.653Z,96114.44
2023-03-18T02:43:33.426Z,96121.25
2023-03-18T02:46:51.891Z,96119.28
2023-03-18T02:49:49.613Z,96126.03
2023-03-18T02:52:46.499Z,96124.69
2023-03-18T02:55:43.624Z,96127.53
2023-03-18T02:58:41.266Z,96123.66
2023-03-18T03:01:40.864Z,96129.97
2023-03-18T03:04:38.354Z,96132.03
2023-03-18T03:07:35.450Z,96128.34
2023-03-18T03:10:32.639Z,96138.09
2023-03-18T03:13:29.709Z,96141.66
2023-03-18T03:16:26.692Z,96133.63
2023-03-18T03:19:23.728Z,96136.50
2023-03-18T03:22:20.594Z,96138.28
2023-03-18T03:25:17.941Z,96145.47
2023-03-18T03:28:17.034Z,96148.03
2023-03-18T03:31:14.664Z,96154.50
2023-03-18T03:34:11.894Z,96148.31
2023-03-18T03:37:08.988Z,96150.78
2023-03-18T03:40:06.838Z,96150.38
2023-03-18T03:43:04.040Z,96144.31
2023-03-18T03:46:00.936Z,96159.19
2023-03-18T03:48:57.799Z,96162.94
2023-03-18T03:51:54.614Z,96161.38
2023-03-18T03:54:52.052Z,96151.75
2023-03-18T03:57:49.248Z,96156.25
2023-03-18T04:00:46.087Z,96151.25
2023-03-18T04:03:42.928Z,96163.97
2023-03-18T04:06:39.877Z,96165.28
2023-03-18T04:09:36.746Z,96168.25
2023-03-18T04:12:33.566Z,96167.53
2023-03-18T04:15:30.783Z,96170.56
2023-03-18T04:18:27.593Z,96171.34
2023-03-18T04:21:24.453Z,96168.22
2023-03-18T04:24:21.798Z,96158.94
2023-03-18T04:27:19.762Z,96158.13
2023-03-18T04:30:17.868Z,96156.00
2023-03-18T04:33:14.782Z,96158.63
2023-03-18T04:36:11.660Z,96158.38
2023-03-18T04:39:09.584Z,96159.44
2023-03-18T04:42:06.672Z,96153.34
2023-03-18T04:45:05.441Z,96153.91
2023-03-18T04:48:02.386Z,96154.50
2023-03-18T04:50:59.810Z,96165.09
2023-03-18T04:53:56.671Z,96164.63
2023-03-18T04:56:53.723Z,96166.03
2023-03-18T04:59:50.885Z,96165.19
2023-03-18T05:02:48.174Z,96168.63
2023-03-18T05:05:45.371Z,96164.22
2023-03-18T05:08:42.391Z,96167.16
2023-03-18T05:11:39.376Z,96169.84
2023-03-18T05:14:36.246Z,96167.44
2023-03-18T05:17:33.163Z,96174.06
2023-03-18T05:20:30.092Z,96169.56
2023-03-18T05:23:27.028Z,96170.06
2023-03-18T05:26:24.692Z,96163.47
2023-03-18T05:29:21.940Z,96172.69
2023-03-18T05:32:19.418Z,96167.13
2023-03-18T05:35:16.453Z,96173.44
2023-03-18T05:38:13.593Z,96166.03
2023-03-18T05:41:10.418Z,96171.31
2023-03-18T05:44:07.322Z,96168.91
2023-03-18T05:47:04.378Z,96166.25
2023-03-18T05:50:02.915Z,96158.03
2023-03-18T05:53:00.839Z,96161.97
2023-03-18T05:55:57.790Z,96169.94
2023-03-18T05:58:54.598Z,96164.34
2023-03-18T06:01:52.679Z,96167.22
2023-03-18T06:04:49.884Z,96176.72
2023-03-18T06:07:47.253Z,96170.09
2023-03-18T06:10:44.082Z,96178.50
2023-03-18T06:13:41.443Z,96169.72
2023-03-18T06:16:38.791Z,96169.50
2023-03-18T06:19:35.671Z,96169.72
2023-03-18T06:22:32.565Z,96164.38
2023-03-18T06:25:29.536Z,96158.19
2023-03-18T06:28:26.333Z,96169.03
2023-03-18T06:31:23.258Z,96171.66
2023-03-18T06:34:20.560Z,96166.91
2023-03-18T06:37:17.885Z,96174.69
2023-03-18T06:40:15.677Z,96169.34
2023-03-18T06:43:12.973Z,96179.78
2023-03-18T06:46:10.577Z,96173.59
2023-03-18T06:49:07.784Z,96177.22
2023-03-18T06:52:04.623Z,96177.88
2023-03-18T06:55:01.526Z,96183.41
2023-03-18T06:57:59.060Z,96183.47
2023-03-18T07:00:55.994Z,96190.13
2023-03-18T07:03:52.797Z,96191.16
2023-03-18T07:06:50.350Z,96189.03
2023-03-18T07:09:47.305Z,96200.84
2023-03-18T07:12:44.217Z,96202.50
2023-03-18T07:15:41.212Z,96207.03
2023-03-18T07:18:38.132Z,96216.53
2023-03-18T07:21:35.802Z,96207.56
2023-03-18T07:24:32.673Z,96220.78
2023-03-18T07:27:30.012Z,96217.91
2023-03-18T07:30:28.765Z,96224.16
2023-03-18T07:33:25.888Z,96229.44
2023-03-18T07:36:23.000Z,96230.22
2023-03-18T07:39:20.892Z,96239.59
2023-03-18T07:42:17.686Z,96245.19
2023-03-18T07:45:14.694Z,96245.25
2023-03-18T07:48:11.733Z,96242.47
2023-03-18T07:51:08.575Z,96241.63
2023-03-18T07:54:06.604Z,96243.34
2023-03-18T07:57:04.634Z,96241.09
2023-03-18T08:00:01.641Z,96242.34
2023-03-18T08:02:58.747Z,96245.28
2023-03-18T08:05:56.168Z,96237.63
2023-03-18T08:08:53.011Z,96237.09
2023-03-18T08:11:49.929Z,96251.63
2023-03-18T08:14:48.226Z,96249.53
2023-03-18T08:17:45.043Z,96254.69
2023-03-18T08:20:41.898Z,96251.53
2023-03-18T08:23:38.863Z,96254.78
2023-03-18T08:26:36.628Z,96252.50
2023-03-18T08:29:33.499Z,96254.28
2023-03-18T08:32:30.777Z,96251.72
2023-03-18T08:35:27.698Z,96252.19
2023-03-18T08:38:25.190Z,96251.00
2023-03-18T08:41:25.590Z,96251.00
2023-03-18T08:44:23.226Z,96241.69
2023-03-18T08:47:21.229Z,96234.81
2023-03-18T08:50:18.086Z,96233.50
2023-03-18T08:53:15.861Z,96222.69
2023-03-18T08:56:14.776Z,96219.69
2023-03-18T08:59:11.795Z,96207.31
2023-03-18T09:02:18.685Z,96224.38
2023-03-18T09:05:15.637Z,96223.31
2023-03-18T09:08:13.517Z,96226.56
2023-03-18T09:11:10.716Z,96232.50
2023-03-18T09:14:08.185Z,96227.59
2023-03-18T09:17:05.249Z,96224.56
2023-03-18T09:20:02.606Z,96226.53
2023-03-18T09:23:00.264Z,96232.16
2023-03-18T09:25:57.545Z,96241.53
2023-03-18T09:28:54.607Z,96240.13
2023-03-18T09:31:52.078Z,96232.69
2023-03-18T09:34:48.936Z,96219.44
2023-03-18T09:37:46.217Z,96230.81
2023-03-18T09:41:03.842Z,96224.41
2023-03-18T09:44:13.887Z,96227.53
2023-03-18T09:47:44.281Z,96213.28
2023-03-18T09:50:56.912Z,96201.16
2023-03-18T09:54:02.302Z,96187.53
2023-03-18T09:57:00.803Z,96197.28
2023-03-18T10:00:18.625Z,96197.81
2023-03-18T10:03:31.855Z,96191.44
2023-03-18T10:06:28.998Z,96201.91
2023-03-18T10:09:30.461Z,96204.63
2023-03-18T10:12:46.333Z,96190.41
2023-03-18T10:15:51.567Z,96202.22
2023-03-18T10:18:49.092Z,96202.06
2023-03-18T10:22:07.422Z,96201.66
2023-03-18T10:25:20.157Z,96200.47
2023-03-18T10:28:54.348Z,96196.97
2023-03-18T10:32:11.404Z,96190.94
2023-03-18T10:35:38.508Z,96190.00
2023-03-18T10:38:44.790Z,96194.53
2023-03-18T10:41:43.990Z,96193.81
2023-03-18T10:44:42.095Z,96199.06
2023-03-18T10:47:42.973Z,96196.63
2023-03-18T10:50:56.867Z,96210.06
2023-03-18T10:54:21.262Z,96206.63
2023-03-18T10:57:19.955Z,96197.88
2023-03-18T11:00:29.634Z,96195.84
2023-03-18T11:03:40.953Z,96191.25
2023-03-18T11:06:57.789Z,96177.28
2023-03-18T11:09:55.371Z,96188.06
2023-03-18T11:13:00.198Z,96193.06
2023-03-18T11:15:58.349Z,96179.66
2023-03-18T11:18:55.210Z,96183.56
2023-03-18T11:22:18.453Z,96174.81
2023-03-18T11:25:20.107Z,96175.03
2023-03-18T11:28:26.612Z,96172.97
2023-03-18T11:31:23.656Z,96179.59
2023-03-18T11:34:22.187Z,96178.00
2023-03-18T11:37:20.161Z,96163.59
2023-03-18T11:40:28.271Z,96165.22
2023-03-18T11:43:26.292Z,96150.16
2023-03-18T11:46:26.478Z,96140.69
2023-03-18T11:49:28.229Z,96150.25
2023-03-18T11:52:52.176Z,96155.91
2023-03-18T11:56:28.333Z,96154.19
2023-03-18T11:59:53.560Z,96149.34
2023-03-18T12:03:03.445Z,96148.34
2023-03-18T12:06:28.553Z,96133.19
2023-03-18T12:09:47.214Z,96130.91
2023-03-18T12:13:17.802Z,96132.84
2023-03-18T12:16:45.300Z,96131.19
2023-03-18T12:20:31.605Z,96138.66
2023-03-18T12:23:50.052Z,96136.31
2023-03-18T12:27:21.223Z,96123.84
2023-03-18T12:30:45.077Z,96127.78
2023-03-18T12:34:49.165Z,96133.22
2023-03-18T12:38:26.840Z,96123.84
2023-03-18T12:41:37.013Z,96122.34
2023-03-18T12:44:57.892Z,96135.97
2023-03-18T12:48:07.357Z,96135.41
2023-03-18T12:51:11.241Z,96119.16
2023-03-18T12:54:25.839Z,96114.50
2023-03-18T12:57:49.197Z,96111.94
2023-03-18T13:01:06.994Z,96112.13
2023-03-18T13:04:13.531Z,96110.63
2023-03-18T13:07:25.377Z,96116.66
2023-03-18T13:10:24.596Z,96107.09
2023-03-18T13:13:22.581Z,96112.97
2023-03-18T13:16:23.306Z,96115.31
2023-03-18T13:19:20.147Z,96110.94
2023-03-18T13:22:44.128Z,96110.81
2023-03-18T13:26:07.286Z,96107.84
2023-03-18T13:29:37.813Z,96108.16
2023-03-18T13:32:59.837Z,96110.13
2023-03-18T13:37:08.668Z,96108.28
2023-03-18T13:40:33.483Z,96101.47
2023-03-18T13:43:33.127Z,96093.47
2023-03-18T13:46:32.850Z,96096.19
2023-03-18T13:49:32.520Z,96085.69
2023-03-18T13:52:43.980Z,96094.25
2023-03-18T13:55:54.135Z,96083.47
2023-03-18T13:58:54.032Z,96091.53
2023-03-18T14:01:51.501Z,96089.31
2023-03-18T14:04:51.318Z,96097.94
2023-03-18T14:07:49.896Z,96087.25
2023-03-18T14:10:46.700Z,96079.47
2023-03-18T14:13:47.493Z,96083.50
2023-03-18T14:16:45.466Z,96092.25
2023-03-18T14:19:45.153Z,96086.72
2023-03-18T14:22:47.298Z,96076.25
2023-03-18T14:25:48.605Z,96093.19
2023-03-18T14:28:57.032Z,96085.25
2023-03-18T14:31:58.860Z,96083.28
2023-03-18T14:35:16.681Z,96081.53
2023-03-18T14:38:21.065Z,96082.34
2023-03-18T14:41:30.459Z,96090.69
2023-03-18T14:44:46.360Z,96087.50
2023-03-18T14:47:51.993Z,96079.31
2023-03-18T14:50:52.410Z,96084.97
2023-03-18T14:54:06.276Z,96082.50
2023-03-18T14:57:04.381Z,96084.03
2023-03-18T15:00:01.800Z,96077.41
2023-03-18T15:03:14.569Z,96074.69
2023-03-18T15:06:21.832Z,96067.78
2023-03-18T15:09:29.778Z,96060.13
2023-03-18T15:12:28.628Z,96062.94
2023-03-18T15:15:25.476Z,96064.25
2023-03-18T15:18:38.024Z,96075.44
2023-03-18T15:21:35.989Z,96065.06
2023-03-18T15:24:33.775Z,96069.31
2023-03-18T15:27:33.969Z,96078.22
2023-03-18T15:30:33.886Z,96077.25
2023-03-18T15:33:36.872Z,96084.63
2023-03-18T15:36:55.839Z,96076.34
2023-03-18T15:39:56.095Z,96080.38
2023-03-18T15:43:30.732Z,96083.41
2023-03-18T15:46:32.697Z,96085.47
2023-03-18T15:49:29.604Z,96081.22
2023-03-18T15:52:39.206Z,96082.03
2023-03-18T15:55:48.673Z,96084.63
2023-03-18T15:58:46.076Z,96087.72
2023-03-18T16:01:43.374Z,96080.81
2023-03-18T16:04:43.786Z,96074.44
2023-03-18T16:07:40.645Z,96074.69
2023-03-18T16:10:37.577Z,96072.59
2023-03-18T16:13:36.615Z,96078.56
2023-03-18T16:16:34.625Z,96070.16
2023-03-18T16:19:31.449Z,96079.50
2023-03-18T16:22:28.370Z,96095.50
2023-03-18T16:25:26.181Z,96087.31
2023-03-18T16:28:26.394Z,96089.69
2023-03-18T16:31:23.369Z,96083.59
2023-03-18T16:34:21.840Z,96092.16
2023-03-18T16:37:25.789Z,96101.56
2023-03-18T16:40:29.214Z,96100.69
2023-03-18T16:43:30.545Z,96111.22
2023-03-18T16:46:27.690Z,96111.66
2023-03-18T16:49:31.737Z,96122.97
2023-03-18T16:52:28.605Z,96121.38
2023-03-18T16:55:26.531Z,96110.59
2023-03-18T16:58:34.895Z,96121.38
2023-03-18T17:01:32.183Z,96115.28
2023-03-18T17:04:33.460Z,96125.34
2023-03-18T17:07:30.340Z,96123.97
2023-03-18T17:10:27.457Z,96136.84
2023-03-18T17:13:28.532Z,96142.09
2023-03-18T17:16:27.788Z,96151.09
2023-03-18T17:19:25.705Z,96143.16
2023-03-18T17:22:32.369Z,96153.34
2023-03-18T17:25:30.931Z,96152.75
2023-03-18T17:28:39.134Z,96151.69
2023-03-18T17:31:36.224Z,96154.88
2023-03-18T17:34:33.240Z,96161.72
2023-03-18T17:37:30.341Z,96166.63
2023-03-18T17:40:30.283Z,96162.69
2023-03-18T17:43:36.173Z,96171.22
2023-03-18T17:46:33.208Z,96169.16
2023-03-18T17:49:30.140Z,96174.53
2023-03-18T17:52:27.353Z,96169.97
2023-03-18T17:55:26.062Z,96175.66
2023-03-18T17:58:27.422Z,96183.19
2023-03-18T18:01:29.145Z,96179.56
2023-03-18T18:04:26.256Z,96181.44
2023-03-18T18:07:23.693Z,96185.22
2023-03-18T18:10:20.770Z,96180.13
2023-03-18T18:13:23.186Z,96186.00
2023-03-18T18:16:21.850Z,96180.44
2023-03-18T18:19:19.438Z,96181.50
2023-03-18T18:22:22.786Z,96180.53
2023-03-18T18:25:30.105Z,96177.00
2023-03-18T18:28:35.546Z,96172.13
2023-03-18T18:31:34.445Z,96186.66
2023-03-18T18:34:31.304Z,96195.28
2023-03-18T18:37:28.108Z,96192.72
2023-03-18T18:40:24.925Z,96196.53
2023-03-18T18:43:23.134Z,96196.47
2023-03-18T18:46:21.301Z,96197.94
2023-03-18T18:49:24.360Z,96202.44
2023-03-18T18:52:21.168Z,96199.16
2023-03-18T18:55:18.501Z,96203.59
2023-03-18T18:58:17.988Z,96206.63
2023-03-18T19:01:15.138Z,96207.19
2023-03-18T19:04:15.711Z,96209.69
2023-03-18T19:07:13.275Z,96198.59
2023-03-18T19:10:16.528Z,96203.38
2023-03-18T19:13:14.768Z,96204.88
2023-03-18T19:16:32.380Z,96211.41
2023-03-18T19:19:34.398Z,96216.13
2023-03-18T19:22:31.436Z,96209.53
2023-03-18T19:25:28.429Z,96203.41
2023-03-18T19:28:58.376Z,96212.50
2023-03-18T19:31:56.038Z,96200.19
2023-03-18T19:34:54.552Z,96204.81
2023-03-18T19:37:51.377Z,96207.09
2023-03-18T19:40:50.416Z,96203.97
2023-03-18T19:43:47.373Z,96207.22
2023-03-18T19:46:46.490Z,96210.22
2023-03-18T19:49:43.634Z,96208.41
2023-03-18T19:52:40.590Z,96209.56
2023-03-18T19:55:37.465Z,96210.59
2023-03-18T19:58:34.341Z,96210.50
2023-03-18T20:01:31.580Z,96210.31
2023-03-18T20:04:30.041Z,96212.91
2023-03-18T20:07:30.910Z,96213.56
2023-03-18T20:10:27.667Z,96215.66
2023-03-18T20:13:24.493Z,96220.19
2023-03-18T20:16:22.298Z,96225.94
2023-03-18T20:19:19.195Z,96225.81
2023-03-18T20:22:31.539Z,96233.03
2023-03-18T20:25:37.087Z,96240.75
2023-03-18T20:28:33.896Z,96233.34
2023-03-18T20:31:30.949Z,96237.19
2023-03-18T20:34:27.766Z,96234.91
2023-03-18T20:37:34.602Z,96237.69
2023-03-18T20:40:31.629Z,96241.34
2023-03-18T20:43:29.183Z,96238.66
2023-03-18T20:46:26.173Z,96239.66
2023-03-18T20:49:23.041Z,96239.34
2023-03-18T20:52:27.624Z,96241.00
2023-03-18T20:55:31.601Z,96249.91
2023-03-18T20:58:28.680Z,96248.25
2023-03-18T21:01:25.770Z,96254.75
2023-03-18T21:04:22.912Z,96243.97
2023-03-18T21:07:19.813Z,96240.31
2023-03-18T21:10:21.732Z,96244.88
2023-03-18T21:13:36.041Z,96242.28
2023-03-18T21:16:36.465Z,96244.91
2023-03-18T21:19:34.545Z,96249.72
2023-03-18T21:22:33.247Z,96251.06
2023-03-18T21:25:30.086Z,96246.44
2023-03-18T21:28:30.070Z,96246.41
2023-03-18T21:31:33.448Z,96242.59
2023-03-18T21:34:30.474Z,96238.81
2023-03-18T21:37:27.848Z,96238.66
2023-03-18T21:40:25.138Z,96239.88
2023-03-18T21:43:41.286Z,96237.31
2023-03-18T21:46:38.186Z,96238.28
2023-03-18T21:49:35.031Z,96235.06
2023-03-18T21:52:36.125Z,96241.59
2023-03-18T21:55:33.240Z,96246.31
2023-03-18T21:58:30.276Z,96239.66
2023-03-18T22:01:32.117Z,96243.28
2023-03-18T22:04:29.116Z,96244.56
2023-03-18T22:07:27.904Z,96247.56
2023-03-18T22:10:24.802Z,96248.84
2023-03-18T22:13:24.904Z,96256.66
2023-03-18T22:16:21.939Z,96251.09
2023-03-18T22:19:18.811Z,96253.19
2023-03-18T22:22:19.786Z,96249.31
2023-03-18T22:25:32.214Z,96243.91
2023-03-18T22:28:29.287Z,96249.22
2023-03-18T22:31:27.230Z,96242.47
2023-03-18T22:34:24.313Z,96247.94
2023-03-18T22:37:23.560Z,96249.75
2023-03-18T22:40:30.713Z,96244.16
2023-03-18T22:43:33.600Z,96242.19
2023-03-18T22:46:31.669Z,96244.78
2023-03-18T22:49:28.497Z,96241.66
2023-03-18T22:52:30.366Z,96243.34
2023-03-18T22:55:38.797Z,96247.66
2023-03-18T22:58:35.904Z,96245.06
2023-03-18T23:01:32.936Z,96244.81
2023-03-18T23:04:30.384Z,96240.97
2023-03-18T23:07:33.470Z,96245.63
2023-03-18T23:10:30.797Z,96248.84
2023-03-18T23:13:37.322Z,96254.78
2023-03-18T23:16:34.172Z,96247.13
2023-03-18T23:19:31.443Z,96244.97
2023-03-18T23:22:33.552Z,96236.84
2023-03-18T23:25:30.388Z,96244.13
2023-03-18T23:28:27.262Z,96231.63
2023-03-18T23:31:24.170Z,96231.38
2023-03-18T23:34:21.391Z,96239.50
2023-03-18T23:37:18.719Z,96248.22
2023-03-18T23:40:17.523Z,96239.97
2023-03-18T23:43:14.595Z,96240.53
2023-03-18T23:46:11.787Z,96246.41
2023-03-18T23:49:08.860Z,96249.44
2023-03-18T23:52:15.790Z,96236.84
2023-03-18T23:55:32.701Z,96242.94
2023-03-18T23:58:29.451Z,96241.84
